Nearby METAR Reports

 

KMFD - Mansfield, Ohio, USA
Distance from station: E 12mi, 20km
Updated: Thu, 03-Dec-2020 9:52pm EST
Overcast
Overcast
 Wind from SSW
Wind: SSW 13 mph , 20 km/h
Temperature: 36°F , 2°C
Wind Chill: 27°F , -3°C
Dew Point: 25°F , -4°C
Humidity: 65%
Barometer: 30.07 inHg , 1018.3 hPa
Clouds: Overcast
Visibility: 10 miles , 16 km
Cloud details: Overcast 7500 ft
2020/12/04 02:52 KMFD 040252Z 21011KT 10SM OVC075 02/M04 A3007 RMK AO2 SLP194 T00221039 58001 $
KMNN - Marion, Ohio, USA
Distance from station: SW 20mi, 33km
Updated: Thu, 03-Dec-2020 9:53pm EST
Overcast
Overcast
 Wind from SSW
Wind: SSW 10 mph , 17 km/h
Temperature: 36°F , 2°C
Wind Chill: 29°F , -2°C
Dew Point: 27°F , -3°C
Humidity: 70%
Barometer: 30.09 inHg , 1019 hPa
Clouds: Overcast
Visibility: 10 miles , 16 km
Cloud details: Overcast 7500 ft
2020/12/04 02:53 KMNN 040253Z AUTO 21009KT 10SM OVC075 02/M03 A3009 RMK AO2 SLP201 T00221028 58001
 
K4I3 - Mt Vernon/Knox, Ohio, USA
Distance from station: SSE 33mi, 54km
Updated: Thu, 03-Dec-2020 10:35pm EST
Mostly cloudy
Mostly cloudy
 Wind from SSW
Wind: SSW 6 mph , 9 km/h
Temperature: 32°F , 0°C
Wind Chill: 26°F , -3°C
Dew Point: 27°F , -3°C
Humidity: 80%
Barometer: 30.12 inHg , 1020 hPa
Clouds: Mostly cloudy
Visibility: 10 miles , 16 km
Cloud details: Mostly cloudy 7000 ft
2020/12/04 03:35 K4I3 040335Z AUTO 21005KT 10SM BKN070 00/M03 A3012 RMK AO2
KDLZ - Delaware, Ohio, USA
Distance from station: SSW 40mi, 64km
Updated: Thu, 03-Dec-2020 10:35pm EST
Overcast
Overcast
 Wind from SSW
Wind: SSW 6 mph , 9 km/h
Temperature: 34°F , 1°C
Wind Chill: 29°F , -2°C
Dew Point: 30°F , -1°C
Humidity: 87%
Barometer: 30.11 inHg , 1019.6 hPa
Clouds: Overcast
Visibility: 10 miles , 16 km
Cloud details: Mostly cloudy 7000 ft
Overcast 7500 ft
2020/12/04 03:35 KDLZ 040335Z AUTO 20005KT 10SM BKN070 OVC075 01/M01 A3011 RMK AO2
 
KBJJ - Wooster, Ohio, USA
Distance from station: E 46mi, 73km
Updated: Thu, 03-Dec-2020 9:56pm EST
Overcast
Overcast
 Wind from SW
Wind: SW 12 mph , 19 km/h
Temperature: 36°F , 2°C
Wind Chill: 28°F , -2°C
Dew Point: 25°F , -4°C
Humidity: 65%
Barometer: 30.08 inHg , 1018.6 hPa
Clouds: Overcast
Visibility: 10 miles , 16 km
Cloud details: Overcast 8000 ft
2020/12/04 02:56 KBJJ 040256Z AUTO 22010KT 10SM OVC080 02/M04 A3008 RMK AO2 SLP199 T00171039 58004
KLPR - Lorain/Elyria, Ohio, USA
Distance from station: NE 49mi, 79km
Updated: Thu, 03-Dec-2020 9:53pm EST
Clear
Clear
 Wind from SW
Wind: SW 14 mph , 22 km/h
Temperature: 36°F , 2°C
Wind Chill: 27°F , -3°C
Dew Point: 19°F , -7°C
Humidity: 52%
Barometer: 30.06 inHg , 1017.9 hPa
Clouds: Clear
Visibility: 10 miles , 16 km
2020/12/04 02:53 KLPR 040253Z AUTO 23012KT 10SM CLR 02/M07 A3006 RMK AO2 SLP186 T00171067 58002